Kezdőlap
METAR-TAF:

METAR-TAF

Repülőterek :

Roseau Municipal Airport (Rudy Billberg Field)

Roseau, Minnesota, Amerikai Egyesült Államok

földrajzi szélesség: 48-51N, földrajzi hosszúság: 095-42W, magasság: 323 m

Jelenlegi meteorológiai megfigyelések

A jelentés 28 perccel ezelõtt készült, 04:55 UTC
Szélcsend
Hőmérséklet 18°C
Páratartalom 94%
Légköri nyomás 1017 hPa
Látótávolság: 16.1 km
Derült ég

METAR: KROX 220455Z AUTO 00000KT 10SM CLR 18/17 A3004 RMK AO2

Idő: 00:23 (05:23 UTC)


TAF: hiányzik

Meteorológiai megfigyelések és előrejelzések több, mint 4000 repülőtéren (METAR és TAF jelentéseket).

A térképen piros és sárga pontok jelzik az elérhető meteorológiai állomásokat.

Mozgassa az egeret a pont fölött, hogy megjelenjen az állomás neve.

Azután kattintson az időjárási megfigyelések és előrejelzések megtekintéséhez.

A térkép megváltoztatása: kattintson a fekete keresztel jelölt zöld gombra ráközelítéshez, a vonallal jelölt zöld gombra távolításhoz, vagy a zöld nyilakra a szomszédos térképek eléréséhez.


METAR-TAF: